sensor_id;sensor_type;location;lat;lon;timestamp;P1;durP1;ratioP1;P2;durP2;ratioP2
9106;SDS011;4589;48.690;8.952;2022-08-19T00:01:26;16.50;;;13.23;;
9106;SDS011;4589;48.690;8.952;2022-08-19T00:03:54;14.20;;;12.37;;
9106;SDS011;4589;48.690;8.952;2022-08-19T00:06:20;17.17;;;12.77;;
9106;SDS011;4589;48.690;8.952;2022-08-19T00:08:46;16.03;;;13.00;;
9106;SDS011;4589;48.690;8.952;2022-08-19T00:11:13;14.53;;;12.37;;
9106;SDS011;4589;48.690;8.952;2022-08-19T00:13:39;17.47;;;13.13;;
9106;SDS011;4589;48.690;8.952;2022-08-19T00:16:05;16.03;;;12.67;;
9106;SDS011;4589;48.690;8.952;2022-08-19T00:18:32;14.97;;;13.20;;
9106;SDS011;4589;48.690;8.952;2022-08-19T00:20:58;20.50;;;14.10;;
9106;SDS011;4589;48.690;8.952;2022-08-19T00:23:24;21.60;;;15.03;;
9106;SDS011;4589;48.690;8.952;2022-08-19T00:25:50;15.17;;;12.57;;
9106;SDS011;4589;48.690;8.952;2022-08-19T00:28:17;21.37;;;14.40;;
9106;SDS011;4589;48.690;8.952;2022-08-19T00:30:43;19.40;;;14.97;;
9106;SDS011;4589;48.690;8.952;2022-08-19T00:33:09;19.17;;;14.93;;
9106;SDS011;4589;48.690;8.952;2022-08-19T00:35:35;16.10;;;13.27;;
9106;SDS011;4589;48.690;8.952;2022-08-19T00:38:03;19.10;;;14.70;;
9106;SDS011;4589;48.690;8.952;2022-08-19T00:40:30;18.40;;;15.87;;
9106;SDS011;4589;48.690;8.952;2022-08-19T00:42:56;20.50;;;14.70;;
9106;SDS011;4589;48.690;8.952;2022-08-19T00:45:22;19.77;;;14.47;;
9106;SDS011;4589;48.690;8.952;2022-08-19T00:47:51;19.43;;;14.87;;
9106;SDS011;4589;48.690;8.952;2022-08-19T00:50:18;18.20;;;14.80;;
9106;SDS011;4589;48.690;8.952;2022-08-19T00:52:46;19.47;;;14.77;;
9106;SDS011;4589;48.690;8.952;2022-08-19T00:55:19;19.27;;;14.93;;
9106;SDS011;4589;48.690;8.952;2022-08-19T00:57:47;17.47;;;15.47;;
9106;SDS011;4589;48.690;8.952;2022-08-19T01:00:19;19.13;;;15.33;;
9106;SDS011;4589;48.690;8.952;2022-08-19T01:02:46;18.80;;;14.23;;
9106;SDS011;4589;48.690;8.952;2022-08-19T01:05:14;17.37;;;14.93;;
9106;SDS011;4589;48.690;8.952;2022-08-19T01:07:43;18.23;;;15.27;;
9106;SDS011;4589;48.690;8.952;2022-08-19T01:10:11;18.83;;;14.00;;
9106;SDS011;4589;48.690;8.952;2022-08-19T01:12:37;17.20;;;14.30;;
9106;SDS011;4589;48.690;8.952;2022-08-19T01:15:05;18.47;;;14.17;;
9106;SDS011;4589;48.690;8.952;2022-08-19T01:17:31;16.50;;;13.40;;
9106;SDS011;4589;48.690;8.952;2022-08-19T01:19:57;18.40;;;14.97;;
9106;SDS011;4589;48.690;8.952;2022-08-19T01:24:48;18.07;;;14.20;;
9106;SDS011;4589;48.690;8.952;2022-08-19T01:27:15;20.43;;;15.33;;
9106;SDS011;4589;48.690;8.952;2022-08-19T01:29:42;17.80;;;14.10;;
9106;SDS011;4589;48.690;8.952;2022-08-19T01:32:11;19.07;;;14.90;;
9106;SDS011;4589;48.690;8.952;2022-08-19T01:34:39;19.57;;;16.60;;
9106;SDS011;4589;48.690;8.952;2022-08-19T01:37:09;16.03;;;13.07;;
9106;SDS011;4589;48.690;8.952;2022-08-19T01:39:36;18.37;;;13.93;;
9106;SDS011;4589;48.690;8.952;2022-08-19T01:42:02;17.03;;;14.03;;
9106;SDS011;4589;48.690;8.952;2022-08-19T01:44:35;17.30;;;13.87;;
9106;SDS011;4589;48.690;8.952;2022-08-19T01:47:02;18.97;;;15.87;;
9106;SDS011;4589;48.690;8.952;2022-08-19T01:49:28;19.93;;;14.97;;
9106;SDS011;4589;48.690;8.952;2022-08-19T01:51:54;23.23;;;17.00;;
9106;SDS011;4589;48.690;8.952;2022-08-19T01:54:21;21.10;;;17.63;;
9106;SDS011;4589;48.690;8.952;2022-08-19T01:56:48;21.33;;;15.73;;
9106;SDS011;4589;48.690;8.952;2022-08-19T01:59:16;23.73;;;17.20;;
9106;SDS011;4589;48.690;8.952;2022-08-19T02:01:42;23.93;;;18.33;;
9106;SDS011;4589;48.690;8.952;2022-08-19T02:04:08;22.90;;;17.10;;
9106;SDS011;4589;48.690;8.952;2022-08-19T02:06:34;22.50;;;17.30;;
9106;SDS011;4589;48.690;8.952;2022-08-19T02:09:00;21.30;;;16.80;;
9106;SDS011;4589;48.690;8.952;2022-08-19T02:11:27;29.03;;;18.50;;
9106;SDS011;4589;48.690;8.952;2022-08-19T02:13:56;23.67;;;18.27;;
9106;SDS011;4589;48.690;8.952;2022-08-19T02:16:22;25.37;;;18.23;;
9106;SDS011;4589;48.690;8.952;2022-08-19T02:18:49;22.80;;;17.67;;
9106;SDS011;4589;48.690;8.952;2022-08-19T02:21:16;23.13;;;18.53;;
9106;SDS011;4589;48.690;8.952;2022-08-19T02:23:43;24.23;;;18.33;;
9106;SDS011;4589;48.690;8.952;2022-08-19T02:26:09;26.60;;;18.53;;
9106;SDS011;4589;48.690;8.952;2022-08-19T02:28:35;27.40;;;18.90;;
9106;SDS011;4589;48.690;8.952;2022-08-19T02:31:02;27.50;;;19.20;;
9106;SDS011;4589;48.690;8.952;2022-08-19T02:33:28;26.77;;;18.50;;
9106;SDS011;4589;48.690;8.952;2022-08-19T02:35:54;21.70;;;16.37;;
9106;SDS011;4589;48.690;8.952;2022-08-19T02:38:20;20.20;;;16.87;;
9106;SDS011;4589;48.690;8.952;2022-08-19T02:40:56;21.93;;;17.27;;
9106;SDS011;4589;48.690;8.952;2022-08-19T02:43:23;23.00;;;15.70;;
9106;SDS011;4589;48.690;8.952;2022-08-19T02:45:51;21.50;;;16.63;;
9106;SDS011;4589;48.690;8.952;2022-08-19T02:48:17;22.97;;;16.93;;
9106;SDS011;4589;48.690;8.952;2022-08-19T02:50:45;22.40;;;17.13;;
9106;SDS011;4589;48.690;8.952;2022-08-19T02:53:12;22.03;;;18.33;;
9106;SDS011;4589;48.690;8.952;2022-08-19T02:55:47;22.63;;;17.40;;
9106;SDS011;4589;48.690;8.952;2022-08-19T02:58:14;22.73;;;17.30;;
9106;SDS011;4589;48.690;8.952;2022-08-19T03:00:47;20.33;;;16.57;;
9106;SDS011;4589;48.690;8.952;2022-08-19T03:03:14;23.33;;;16.50;;
9106;SDS011;4589;48.690;8.952;2022-08-19T03:05:40;25.10;;;18.10;;
9106;SDS011;4589;48.690;8.952;2022-08-19T03:08:07;24.10;;;17.47;;
9106;SDS011;4589;48.690;8.952;2022-08-19T03:10:44;22.30;;;17.87;;
9106;SDS011;4589;48.690;8.952;2022-08-19T03:13:12;21.20;;;16.73;;
9106;SDS011;4589;48.690;8.952;2022-08-19T03:15:40;22.23;;;17.40;;
9106;SDS011;4589;48.690;8.952;2022-08-19T03:18:06;23.47;;;19.00;;
9106;SDS011;4589;48.690;8.952;2022-08-19T03:20:32;24.00;;;18.37;;
9106;SDS011;4589;48.690;8.952;2022-08-19T03:22:58;22.40;;;18.80;;
9106;SDS011;4589;48.690;8.952;2022-08-19T03:25:24;24.60;;;19.10;;
9106;SDS011;4589;48.690;8.952;2022-08-19T03:27:50;26.80;;;18.93;;
9106;SDS011;4589;48.690;8.952;2022-08-19T03:30:16;23.50;;;19.20;;
9106;SDS011;4589;48.690;8.952;2022-08-19T03:32:42;24.00;;;19.10;;
9106;SDS011;4589;48.690;8.952;2022-08-19T03:35:08;23.23;;;18.47;;
9106;SDS011;4589;48.690;8.952;2022-08-19T03:37:34;25.30;;;19.27;;
9106;SDS011;4589;48.690;8.952;2022-08-19T03:40:00;25.00;;;19.33;;
9106;SDS011;4589;48.690;8.952;2022-08-19T03:42:28;24.50;;;20.80;;
9106;SDS011;4589;48.690;8.952;2022-08-19T03:44:54;25.27;;;20.53;;
9106;SDS011;4589;48.690;8.952;2022-08-19T03:47:20;29.03;;;21.33;;
9106;SDS011;4589;48.690;8.952;2022-08-19T03:49:46;28.00;;;21.53;;
9106;SDS011;4589;48.690;8.952;2022-08-19T03:52:12;26.67;;;21.30;;
9106;SDS011;4589;48.690;8.952;2022-08-19T03:54:39;28.17;;;21.77;;
9106;SDS011;4589;48.690;8.952;2022-08-19T03:57:05;27.60;;;20.43;;
9106;SDS011;4589;48.690;8.952;2022-08-19T03:59:32;27.67;;;21.37;;
9106;SDS011;4589;48.690;8.952;2022-08-19T04:02:00;33.63;;;22.43;;
9106;SDS011;4589;48.690;8.952;2022-08-19T04:04:28;28.43;;;22.57;;
9106;SDS011;4589;48.690;8.952;2022-08-19T04:06:54;27.50;;;21.03;;
9106;SDS011;4589;48.690;8.952;2022-08-19T04:09:20;27.33;;;21.63;;
9106;SDS011;4589;48.690;8.952;2022-08-19T04:11:48;27.00;;;21.63;;
9106;SDS011;4589;48.690;8.952;2022-08-19T04:14:17;28.97;;;21.80;;
9106;SDS011;4589;48.690;8.952;2022-08-19T04:16:44;26.70;;;21.23;;
9106;SDS011;4589;48.690;8.952;2022-08-19T04:19:12;31.90;;;23.87;;
9106;SDS011;4589;48.690;8.952;2022-08-19T04:21:38;31.23;;;23.03;;
9106;SDS011;4589;48.690;8.952;2022-08-19T04:24:04;26.73;;;21.77;;
9106;SDS011;4589;48.690;8.952;2022-08-19T04:26:32;29.63;;;22.57;;
9106;SDS011;4589;48.690;8.952;2022-08-19T04:29:00;33.33;;;24.90;;
9106;SDS011;4589;48.690;8.952;2022-08-19T04:31:28;31.73;;;24.60;;
9106;SDS011;4589;48.690;8.952;2022-08-19T04:33:58;30.13;;;22.97;;
9106;SDS011;4589;48.690;8.952;2022-08-19T04:36:26;30.50;;;22.90;;
9106;SDS011;4589;48.690;8.952;2022-08-19T04:38:53;29.00;;;23.23;;
9106;SDS011;4589;48.690;8.952;2022-08-19T04:41:21;28.87;;;22.57;;
9106;SDS011;4589;48.690;8.952;2022-08-19T04:44:05;27.80;;;21.30;;
9106;SDS011;4589;48.690;8.952;2022-08-19T04:46:31;29.00;;;22.63;;
9106;SDS011;4589;48.690;8.952;2022-08-19T04:49:00;29.13;;;23.03;;
9106;SDS011;4589;48.690;8.952;2022-08-19T04:51:29;30.50;;;23.27;;
9106;SDS011;4589;48.690;8.952;2022-08-19T04:53:56;33.03;;;21.70;;
9106;SDS011;4589;48.690;8.952;2022-08-19T04:56:23;33.00;;;25.23;;
9106;SDS011;4589;48.690;8.952;2022-08-19T04:58:51;29.93;;;21.90;;
9106;SDS011;4589;48.690;8.952;2022-08-19T05:01:21;34.10;;;24.23;;
9106;SDS011;4589;48.690;8.952;2022-08-19T05:03:48;31.47;;;20.93;;
9106;SDS011;4589;48.690;8.952;2022-08-19T05:06:14;28.60;;;20.90;;
9106;SDS011;4589;48.690;8.952;2022-08-19T05:08:41;36.87;;;22.90;;
9106;SDS011;4589;48.690;8.952;2022-08-19T05:11:09;30.50;;;22.50;;
9106;SDS011;4589;48.690;8.952;2022-08-19T05:13:36;31.73;;;23.10;;
9106;SDS011;4589;48.690;8.952;2022-08-19T05:16:01;26.97;;;22.50;;
9106;SDS011;4589;48.690;8.952;2022-08-19T05:18:27;27.83;;;21.80;;
9106;SDS011;4589;48.690;8.952;2022-08-19T05:21:13;33.10;;;23.00;;
9106;SDS011;4589;48.690;8.952;2022-08-19T05:23:58;28.63;;;21.60;;
9106;SDS011;4589;48.690;8.952;2022-08-19T05:26:24;28.80;;;22.70;;
9106;SDS011;4589;48.690;8.952;2022-08-19T05:28:54;31.13;;;22.73;;
9106;SDS011;4589;48.690;8.952;2022-08-19T05:31:20;29.70;;;22.33;;
9106;SDS011;4589;48.690;8.952;2022-08-19T05:33:46;33.27;;;23.30;;
9106;SDS011;4589;48.690;8.952;2022-08-19T05:36:12;31.13;;;21.00;;
9106;SDS011;4589;48.690;8.952;2022-08-19T05:38:39;29.00;;;22.17;;
9106;SDS011;4589;48.690;8.952;2022-08-19T05:41:08;28.73;;;21.87;;
9106;SDS011;4589;48.690;8.952;2022-08-19T05:43:34;31.00;;;22.07;;
9106;SDS011;4589;48.690;8.952;2022-08-19T05:46:00;27.93;;;21.97;;
9106;SDS011;4589;48.690;8.952;2022-08-19T05:48:26;27.20;;;22.13;;
9106;SDS011;4589;48.690;8.952;2022-08-19T05:50:52;26.30;;;19.90;;
9106;SDS011;4589;48.690;8.952;2022-08-19T05:53:18;28.00;;;22.10;;
9106;SDS011;4589;48.690;8.952;2022-08-19T05:55:44;26.87;;;21.27;;
9106;SDS011;4589;48.690;8.952;2022-08-19T05:58:09;28.77;;;20.00;;
9106;SDS011;4589;48.690;8.952;2022-08-19T06:00:36;25.10;;;20.20;;
9106;SDS011;4589;48.690;8.952;2022-08-19T06:03:02;25.90;;;21.50;;
9106;SDS011;4589;48.690;8.952;2022-08-19T06:05:29;29.33;;;21.13;;
9106;SDS011;4589;48.690;8.952;2022-08-19T06:07:55;26.40;;;21.50;;
9106;SDS011;4589;48.690;8.952;2022-08-19T06:10:27;25.93;;;20.80;;
9106;SDS011;4589;48.690;8.952;2022-08-19T06:12:53;28.50;;;22.50;;
9106;SDS011;4589;48.690;8.952;2022-08-19T06:15:18;27.73;;;21.30;;
9106;SDS011;4589;48.690;8.952;2022-08-19T06:17:44;30.70;;;23.17;;
9106;SDS011;4589;48.690;8.952;2022-08-19T06:20:12;27.97;;;21.70;;
9106;SDS011;4589;48.690;8.952;2022-08-19T06:22:39;26.87;;;21.50;;
9106;SDS011;4589;48.690;8.952;2022-08-19T06:25:05;27.30;;;22.43;;
9106;SDS011;4589;48.690;8.952;2022-08-19T06:27:31;26.67;;;21.43;;
9106;SDS011;4589;48.690;8.952;2022-08-19T06:29:58;23.77;;;19.40;;
9106;SDS011;4589;48.690;8.952;2022-08-19T06:32:23;27.57;;;21.07;;
9106;SDS011;4589;48.690;8.952;2022-08-19T06:34:50;24.87;;;20.07;;
9106;SDS011;4589;48.690;8.952;2022-08-19T06:37:16;24.87;;;19.93;;
9106;SDS011;4589;48.690;8.952;2022-08-19T06:39:43;25.60;;;21.00;;
9106;SDS011;4589;48.690;8.952;2022-08-19T06:42:10;28.17;;;20.77;;
9106;SDS011;4589;48.690;8.952;2022-08-19T06:44:44;21.60;;;18.30;;
9106;SDS011;4589;48.690;8.952;2022-08-19T06:47:12;24.03;;;19.07;;
9106;SDS011;4589;48.690;8.952;2022-08-19T06:49:40;24.47;;;20.63;;
9106;SDS011;4589;48.690;8.952;2022-08-19T06:52:10;24.80;;;20.80;;
9106;SDS011;4589;48.690;8.952;2022-08-19T06:54:45;25.00;;;19.50;;
9106;SDS011;4589;48.690;8.952;2022-08-19T06:57:11;24.37;;;20.43;;
9106;SDS011;4589;48.690;8.952;2022-08-19T06:59:39;22.17;;;19.63;;
9106;SDS011;4589;48.690;8.952;2022-08-19T07:02:06;22.60;;;18.70;;
9106;SDS011;4589;48.690;8.952;2022-08-19T07:04:33;23.93;;;19.13;;
9106;SDS011;4589;48.690;8.952;2022-08-19T07:07:01;22.67;;;18.00;;
9106;SDS011;4589;48.690;8.952;2022-08-19T07:09:31;20.10;;;17.13;;
9106;SDS011;4589;48.690;8.952;2022-08-19T07:11:57;21.00;;;17.93;;
9106;SDS011;4589;48.690;8.952;2022-08-19T07:14:24;23.17;;;17.50;;
9106;SDS011;4589;48.690;8.952;2022-08-19T07:16:52;18.87;;;16.50;;
9106;SDS011;4589;48.690;8.952;2022-08-19T07:19:20;21.20;;;17.70;;
9106;SDS011;4589;48.690;8.952;2022-08-19T07:21:50;24.40;;;16.60;;
9106;SDS011;4589;48.690;8.952;2022-08-19T07:24:19;20.10;;;16.77;;
9106;SDS011;4589;48.690;8.952;2022-08-19T07:26:48;25.53;;;18.50;;
9106;SDS011;4589;48.690;8.952;2022-08-19T07:29:14;27.40;;;17.70;;
9106;SDS011;4589;48.690;8.952;2022-08-19T07:31:41;30.07;;;17.93;;
9106;SDS011;4589;48.690;8.952;2022-08-19T07:34:08;27.50;;;16.97;;
9106;SDS011;4589;48.690;8.952;2022-08-19T07:36:36;25.13;;;18.30;;
9106;SDS011;4589;48.690;8.952;2022-08-19T07:39:04;28.23;;;17.90;;
9106;SDS011;4589;48.690;8.952;2022-08-19T07:41:32;45.93;;;19.47;;
9106;SDS011;4589;48.690;8.952;2022-08-19T07:43:59;28.17;;;17.70;;
9106;SDS011;4589;48.690;8.952;2022-08-19T07:46:29;22.87;;;18.40;;
9106;SDS011;4589;48.690;8.952;2022-08-19T07:48:56;20.97;;;17.60;;
9106;SDS011;4589;48.690;8.952;2022-08-19T07:51:22;19.40;;;17.20;;
9106;SDS011;4589;48.690;8.952;2022-08-19T07:53:48;20.23;;;17.97;;
9106;SDS011;4589;48.690;8.952;2022-08-19T07:56:16;24.10;;;19.30;;
9106;SDS011;4589;48.690;8.952;2022-08-19T07:58:43;24.33;;;16.30;;
9106;SDS011;4589;48.690;8.952;2022-08-19T08:01:11;23.33;;;18.90;;
9106;SDS011;4589;48.690;8.952;2022-08-19T08:03:39;23.20;;;17.57;;
9106;SDS011;4589;48.690;8.952;2022-08-19T08:06:24;30.00;;;17.30;;
9106;SDS011;4589;48.690;8.952;2022-08-19T08:09:08;24.30;;;17.33;;
9106;SDS011;4589;48.690;8.952;2022-08-19T08:11:44;27.60;;;16.23;;
9106;SDS011;4589;48.690;8.952;2022-08-19T08:14:14;27.97;;;18.00;;
9106;SDS011;4589;48.690;8.952;2022-08-19T08:16:40;23.40;;;16.80;;
9106;SDS011;4589;48.690;8.952;2022-08-19T08:19:09;25.03;;;17.40;;
9106;SDS011;4589;48.690;8.952;2022-08-19T08:21:35;23.83;;;16.10;;
9106;SDS011;4589;48.690;8.952;2022-08-19T08:24:01;24.73;;;18.73;;
9106;SDS011;4589;48.690;8.952;2022-08-19T08:26:27;28.73;;;17.97;;
9106;SDS011;4589;48.690;8.952;2022-08-19T08:28:53;27.60;;;17.17;;
9106;SDS011;4589;48.690;8.952;2022-08-19T08:31:19;21.73;;;16.60;;
9106;SDS011;4589;48.690;8.952;2022-08-19T08:33:46;21.50;;;16.73;;
9106;SDS011;4589;48.690;8.952;2022-08-19T08:36:12;21.90;;;16.00;;
9106;SDS011;4589;48.690;8.952;2022-08-19T08:38:39;27.40;;;17.90;;
9106;SDS011;4589;48.690;8.952;2022-08-19T08:41:08;21.70;;;16.23;;
9106;SDS011;4589;48.690;8.952;2022-08-19T08:43:37;21.37;;;16.47;;
9106;SDS011;4589;48.690;8.952;2022-08-19T08:46:09;23.00;;;16.17;;
9106;SDS011;4589;48.690;8.952;2022-08-19T08:51:02;24.80;;;16.33;;
9106;SDS011;4589;48.690;8.952;2022-08-19T08:53:30;27.47;;;16.30;;
9106;SDS011;4589;48.690;8.952;2022-08-19T08:55:58;40.17;;;16.70;;
9106;SDS011;4589;48.690;8.952;2022-08-19T08:58:41;28.70;;;16.80;;
9106;SDS011;4589;48.690;8.952;2022-08-19T09:01:13;21.37;;;15.77;;
9106;SDS011;4589;48.690;8.952;2022-08-19T09:03:39;21.17;;;16.00;;
9106;SDS011;4589;48.690;8.952;2022-08-19T09:06:11;20.27;;;16.03;;
9106;SDS011;4589;48.690;8.952;2022-08-19T09:08:43;19.10;;;16.87;;
9106;SDS011;4589;48.690;8.952;2022-08-19T09:16:28;17.27;;;14.67;;
9106;SDS011;4589;48.690;8.952;2022-08-19T09:18:55;24.80;;;16.77;;
9106;SDS011;4589;48.690;8.952;2022-08-19T09:21:26;20.50;;;16.00;;
9106;SDS011;4589;48.690;8.952;2022-08-19T09:23:52;18.23;;;16.30;;
9106;SDS011;4589;48.690;8.952;2022-08-19T09:26:21;19.30;;;16.40;;
9106;SDS011;4589;48.690;8.952;2022-08-19T09:28:49;21.67;;;16.80;;
9106;SDS011;4589;48.690;8.952;2022-08-19T09:31:22;23.40;;;15.73;;
9106;SDS011;4589;48.690;8.952;2022-08-19T09:33:50;17.10;;;14.47;;
9106;SDS011;4589;48.690;8.952;2022-08-19T09:36:17;20.70;;;14.93;;
9106;SDS011;4589;48.690;8.952;2022-08-19T09:38:44;20.30;;;15.63;;
9106;SDS011;4589;48.690;8.952;2022-08-19T09:41:11;23.23;;;15.83;;
9106;SDS011;4589;48.690;8.952;2022-08-19T09:43:38;20.77;;;15.53;;
9106;SDS011;4589;48.690;8.952;2022-08-19T09:46:05;34.00;;;16.63;;
9106;SDS011;4589;48.690;8.952;2022-08-19T09:48:32;19.10;;;15.50;;
9106;SDS011;4589;48.690;8.952;2022-08-19T09:51:09;19.67;;;16.10;;
9106;SDS011;4589;48.690;8.952;2022-08-19T09:53:42;32.27;;;16.00;;
9106;SDS011;4589;48.690;8.952;2022-08-19T09:56:08;23.67;;;16.20;;
9106;SDS011;4589;48.690;8.952;2022-08-19T09:58:35;19.40;;;15.03;;
9106;SDS011;4589;48.690;8.952;2022-08-19T10:01:01;26.67;;;16.40;;
9106;SDS011;4589;48.690;8.952;2022-08-19T10:03:30;19.10;;;16.30;;
9106;SDS011;4589;48.690;8.952;2022-08-19T10:05:56;18.13;;;14.07;;
9106;SDS011;4589;48.690;8.952;2022-08-19T10:08:25;18.50;;;15.63;;
9106;SDS011;4589;48.690;8.952;2022-08-19T10:10:51;19.93;;;14.00;;
9106;SDS011;4589;48.690;8.952;2022-08-19T10:13:19;16.10;;;14.07;;
9106;SDS011;4589;48.690;8.952;2022-08-19T10:15:48;17.97;;;14.60;;
9106;SDS011;4589;48.690;8.952;2022-08-19T10:18:16;15.93;;;14.20;;
9106;SDS011;4589;48.690;8.952;2022-08-19T10:20:48;13.93;;;12.60;;
9106;SDS011;4589;48.690;8.952;2022-08-19T10:23:15;15.50;;;12.37;;
9106;SDS011;4589;48.690;8.952;2022-08-19T10:25:41;13.83;;;12.30;;
9106;SDS011;4589;48.690;8.952;2022-08-19T10:28:07;16.10;;;13.67;;
9106;SDS011;4589;48.690;8.952;2022-08-19T10:30:37;16.80;;;12.90;;
9106;SDS011;4589;48.690;8.952;2022-08-19T10:33:03;24.03;;;14.13;;
9106;SDS011;4589;48.690;8.952;2022-08-19T10:35:29;15.53;;;12.17;;
9106;SDS011;4589;48.690;8.952;2022-08-19T10:37:55;13.80;;;12.17;;
9106;SDS011;4589;48.690;8.952;2022-08-19T10:40:26;17.20;;;12.77;;
9106;SDS011;4589;48.690;8.952;2022-08-19T10:42:56;12.70;;;10.60;;
9106;SDS011;4589;48.690;8.952;2022-08-19T10:45:22;12.30;;;11.00;;
9106;SDS011;4589;48.690;8.952;2022-08-19T10:47:49;14.60;;;10.37;;
9106;SDS011;4589;48.690;8.952;2022-08-19T10:50:15;12.33;;;9.40;;
9106;SDS011;4589;48.690;8.952;2022-08-19T10:53:03;15.60;;;9.30;;
9106;SDS011;4589;48.690;8.952;2022-08-19T10:55:30;16.80;;;10.60;;
9106;SDS011;4589;48.690;8.952;2022-08-19T10:58:18;13.10;;;11.30;;
9106;SDS011;4589;48.690;8.952;2022-08-19T11:00:53;18.80;;;10.60;;
9106;SDS011;4589;48.690;8.952;2022-08-19T11:03:20;17.53;;;11.07;;
9106;SDS011;4589;48.690;8.952;2022-08-19T11:05:46;14.80;;;11.87;;
9106;SDS011;4589;48.690;8.952;2022-08-19T11:08:21;13.47;;;11.10;;
9106;SDS011;4589;48.690;8.952;2022-08-19T11:10:50;13.57;;;10.57;;
9106;SDS011;4589;48.690;8.952;2022-08-19T11:13:16;12.20;;;10.90;;
9106;SDS011;4589;48.690;8.952;2022-08-19T11:15:41;15.37;;;10.20;;
9106;SDS011;4589;48.690;8.952;2022-08-19T11:18:08;14.47;;;10.47;;
9106;SDS011;4589;48.690;8.952;2022-08-19T11:20:33;14.23;;;10.43;;
9106;SDS011;4589;48.690;8.952;2022-08-19T11:22:59;13.30;;;10.37;;
9106;SDS011;4589;48.690;8.952;2022-08-19T11:25:25;10.83;;;9.73;;
9106;SDS011;4589;48.690;8.952;2022-08-19T11:27:51;12.07;;;10.83;;
9106;SDS011;4589;48.690;8.952;2022-08-19T11:30:17;10.53;;;9.53;;
9106;SDS011;4589;48.690;8.952;2022-08-19T11:32:43;11.73;;;10.07;;
9106;SDS011;4589;48.690;8.952;2022-08-19T11:35:08;10.60;;;9.33;;
9106;SDS011;4589;48.690;8.952;2022-08-19T11:37:36;13.90;;;10.00;;
9106;SDS011;4589;48.690;8.952;2022-08-19T11:40:03;10.60;;;9.60;;
9106;SDS011;4589;48.690;8.952;2022-08-19T11:42:29;10.30;;;9.27;;
9106;SDS011;4589;48.690;8.952;2022-08-19T11:45:14;9.90;;;9.10;;
9106;SDS011;4589;48.690;8.952;2022-08-19T11:47:40;11.97;;;9.33;;
9106;SDS011;4589;48.690;8.952;2022-08-19T11:50:05;12.90;;;9.67;;
9106;SDS011;4589;48.690;8.952;2022-08-19T11:52:31;11.70;;;9.90;;
9106;SDS011;4589;48.690;8.952;2022-08-19T11:54:57;11.53;;;8.67;;
9106;SDS011;4589;48.690;8.952;2022-08-19T11:57:22;9.50;;;8.50;;
9106;SDS011;4589;48.690;8.952;2022-08-19T11:59:49;10.00;;;8.87;;
9106;SDS011;4589;48.690;8.952;2022-08-19T12:02:17;9.77;;;8.87;;
9106;SDS011;4589;48.690;8.952;2022-08-19T12:04:44;9.33;;;8.30;;
9106;SDS011;4589;48.690;8.952;2022-08-19T12:07:10;9.50;;;8.23;;
9106;SDS011;4589;48.690;8.952;2022-08-19T12:09:35;9.00;;;8.20;;
9106;SDS011;4589;48.690;8.952;2022-08-19T12:12:01;9.53;;;8.23;;
9106;SDS011;4589;48.690;8.952;2022-08-19T12:14:27;10.43;;;8.87;;
9106;SDS011;4589;48.690;8.952;2022-08-19T12:16:55;7.67;;;6.97;;
9106;SDS011;4589;48.690;8.952;2022-08-19T12:19:21;10.57;;;8.17;;
9106;SDS011;4589;48.690;8.952;2022-08-19T12:21:47;9.53;;;7.50;;
9106;SDS011;4589;48.690;8.952;2022-08-19T12:24:14;14.80;;;7.83;;
9106;SDS011;4589;48.690;8.952;2022-08-19T12:26:40;7.30;;;6.60;;
9106;SDS011;4589;48.690;8.952;2022-08-19T12:29:06;7.07;;;6.47;;
9106;SDS011;4589;48.690;8.952;2022-08-19T12:31:33;8.20;;;6.27;;
9106;SDS011;4589;48.690;8.952;2022-08-19T12:33:59;6.43;;;5.83;;
9106;SDS011;4589;48.690;8.952;2022-08-19T12:36:27;6.40;;;5.80;;
9106;SDS011;4589;48.690;8.952;2022-08-19T12:38:52;6.80;;;6.17;;
9106;SDS011;4589;48.690;8.952;2022-08-19T12:41:19;13.33;;;6.97;;
9106;SDS011;4589;48.690;8.952;2022-08-19T12:43:47;6.23;;;5.73;;
9106;SDS011;4589;48.690;8.952;2022-08-19T12:46:14;7.53;;;6.80;;
9106;SDS011;4589;48.690;8.952;2022-08-19T12:48:39;8.33;;;6.33;;
9106;SDS011;4589;48.690;8.952;2022-08-19T12:51:10;6.90;;;6.10;;
9106;SDS011;4589;48.690;8.952;2022-08-19T12:53:37;13.03;;;7.27;;
9106;SDS011;4589;48.690;8.952;2022-08-19T12:56:03;7.50;;;6.87;;
9106;SDS011;4589;48.690;8.952;2022-08-19T12:58:30;8.87;;;6.37;;
9106;SDS011;4589;48.690;8.952;2022-08-19T13:00:57;7.27;;;6.67;;
9106;SDS011;4589;48.690;8.952;2022-08-19T13:03:23;6.70;;;6.10;;
9106;SDS011;4589;48.690;8.952;2022-08-19T13:05:53;6.37;;;5.83;;
9106;SDS011;4589;48.690;8.952;2022-08-19T13:08:19;7.40;;;6.73;;
9106;SDS011;4589;48.690;8.952;2022-08-19T13:10:45;6.40;;;5.80;;
9106;SDS011;4589;48.690;8.952;2022-08-19T13:13:11;7.87;;;7.17;;
9106;SDS011;4589;48.690;8.952;2022-08-19T13:15:39;5.70;;;5.20;;
9106;SDS011;4589;48.690;8.952;2022-08-19T13:18:06;8.03;;;6.63;;
9106;SDS011;4589;48.690;8.952;2022-08-19T13:20:34;6.27;;;5.77;;
9106;SDS011;4589;48.690;8.952;2022-08-19T13:23:00;7.23;;;5.70;;
9106;SDS011;4589;48.690;8.952;2022-08-19T13:25:26;6.67;;;6.07;;
9106;SDS011;4589;48.690;8.952;2022-08-19T13:27:52;6.53;;;5.97;;
9106;SDS011;4589;48.690;8.952;2022-08-19T13:30:18;6.30;;;5.80;;
9106;SDS011;4589;48.690;8.952;2022-08-19T13:33:03;7.60;;;6.30;;
9106;SDS011;4589;48.690;8.952;2022-08-19T13:35:35;7.90;;;7.30;;
9106;SDS011;4589;48.690;8.952;2022-08-19T13:38:01;7.43;;;6.63;;
9106;SDS011;4589;48.690;8.952;2022-08-19T13:40:29;8.60;;;7.80;;
9106;SDS011;4589;48.690;8.952;2022-08-19T13:42:56;8.50;;;7.70;;
9106;SDS011;4589;48.690;8.952;2022-08-19T13:45:23;7.40;;;6.80;;
9106;SDS011;4589;48.690;8.952;2022-08-19T13:47:50;8.33;;;7.63;;
9106;SDS011;4589;48.690;8.952;2022-08-19T13:50:17;8.13;;;7.47;;
9106;SDS011;4589;48.690;8.952;2022-08-19T13:52:45;8.23;;;7.50;;
9106;SDS011;4589;48.690;8.952;2022-08-19T13:55:12;7.70;;;7.10;;
9106;SDS011;4589;48.690;8.952;2022-08-19T13:57:38;8.07;;;7.40;;
9106;SDS011;4589;48.690;8.952;2022-08-19T14:00:06;12.03;;;7.93;;
9106;SDS011;4589;48.690;8.952;2022-08-19T14:02:35;8.07;;;7.47;;
9106;SDS011;4589;48.690;8.952;2022-08-19T14:05:02;7.87;;;7.20;;
9106;SDS011;4589;48.690;8.952;2022-08-19T14:07:28;8.87;;;7.77;;
9106;SDS011;4589;48.690;8.952;2022-08-19T14:09:54;8.83;;;8.03;;
9106;SDS011;4589;48.690;8.952;2022-08-19T14:12:20;8.30;;;7.60;;
9106;SDS011;4589;48.690;8.952;2022-08-19T14:14:46;7.77;;;7.00;;
9106;SDS011;4589;48.690;8.952;2022-08-19T14:17:13;7.70;;;7.10;;
9106;SDS011;4589;48.690;8.952;2022-08-19T14:19:39;8.13;;;7.43;;
9106;SDS011;4589;48.690;8.952;2022-08-19T14:22:05;9.00;;;8.30;;
9106;SDS011;4589;48.690;8.952;2022-08-19T14:24:31;8.43;;;7.73;;
9106;SDS011;4589;48.690;8.952;2022-08-19T14:26:57;8.43;;;7.73;;
9106;SDS011;4589;48.690;8.952;2022-08-19T14:29:23;8.70;;;7.90;;
9106;SDS011;4589;48.690;8.952;2022-08-19T14:31:49;8.80;;;8.10;;
9106;SDS011;4589;48.690;8.952;2022-08-19T14:34:15;8.43;;;7.53;;
9106;SDS011;4589;48.690;8.952;2022-08-19T14:36:41;8.63;;;8.00;;
9106;SDS011;4589;48.690;8.952;2022-08-19T14:39:07;9.30;;;8.40;;
9106;SDS011;4589;48.690;8.952;2022-08-19T14:41:34;7.87;;;7.13;;
9106;SDS011;4589;48.690;8.952;2022-08-19T14:44:00;8.40;;;7.70;;
9106;SDS011;4589;48.690;8.952;2022-08-19T14:46:27;7.83;;;7.13;;
9106;SDS011;4589;48.690;8.952;2022-08-19T14:48:54;8.20;;;7.50;;
9106;SDS011;4589;48.690;8.952;2022-08-19T14:51:20;8.07;;;7.27;;
9106;SDS011;4589;48.690;8.952;2022-08-19T14:53:47;7.50;;;6.90;;
9106;SDS011;4589;48.690;8.952;2022-08-19T14:56:14;7.63;;;7.00;;
9106;SDS011;4589;48.690;8.952;2022-08-19T14:58:43;8.33;;;7.63;;
9106;SDS011;4589;48.690;8.952;2022-08-19T15:01:09;8.20;;;7.60;;
9106;SDS011;4589;48.690;8.952;2022-08-19T15:03:36;7.57;;;6.87;;
9106;SDS011;4589;48.690;8.952;2022-08-19T15:06:03;7.70;;;7.00;;